Time;durP1;ratioP1;P1;durP2;ratioP2;P2;SDS_P1;SDS_P2;PMS_P1;PMS_P2;Temp;Humidity;BMP_temperature;BMP_pressure;BME280_temperature;BME280_humidity;BME280_pressure;Samples;Min_cycle;Max_cycle;Signal;HPM_P1;HPM_P2
2021/12/24 00:00:07;;;;;;;6.45;5.40;;;6.70;99.90;;;;;;5003434;28;20452;-77
2021/12/24 00:02:33;;;;;;;6.15;3.35;;;6.70;99.90;;;;;;4985817;28;20042;-77
2021/12/24 00:04:58;;;;;;;3.25;2.47;;;6.70;99.90;;;;;;5002679;28;20053;-77
2021/12/24 00:07:24;;;;;;;3.20;3.00;;;6.70;99.90;;;;;;5003394;28;20052;-77
2021/12/24 00:09:49;;;;;;;4.90;3.03;;;6.70;99.90;;;;;;4983288;28;20228;-77
2021/12/24 00:12:19;;;;;;;2.80;2.60;;;6.70;99.90;;;;;;4984084;28;20125;-77
2021/12/24 00:14:50;;;;;;;6.05;4.75;;;6.70;99.90;;;;;;4982281;28;20125;-77
2021/12/24 00:17:19;;;;;;;11.82;3.83;;;6.70;99.90;;;;;;4981711;28;20516;-77
2021/12/24 00:20:18;;;;;;;7.85;4.80;;;6.70;99.90;;;;;;4983434;28;20054;-77
2021/12/24 00:23:21;;;;;;;9.82;4.07;;;6.70;99.90;;;;;;4983747;28;20068;-77
2021/12/24 00:36:17;;;;;;;4.00;3.72;;;6.80;99.90;;;;;;4964795;28;20318;-77
2021/12/24 00:38:42;;;;;;;2.97;2.78;;;6.70;99.90;;;;;;4964118;28;20723;-77
2021/12/24 00:41:08;;;;;;;6.10;4.03;;;6.70;99.90;;;;;;4962540;28;20074;-77
2021/12/24 00:43:33;;;;;;;6.90;4.07;;;6.80;99.90;;;;;;4964173;28;20334;-77
2021/12/24 00:45:59;;;;;;;4.13;3.83;;;6.80;99.90;;;;;;4963590;28;20053;-78
2021/12/24 00:48:24;;;;;;;3.90;3.60;;;6.80;99.90;;;;;;4962214;28;20042;-77
2021/12/24 00:51:17;;;;;;;3.67;3.38;;;6.80;99.90;;;;;;4963575;28;20073;-77
2021/12/24 00:56:15;;;;;;;6.60;4.10;;;6.80;99.90;;;;;;4963473;28;21286;-77
2021/12/24 00:58:41;;;;;;;3.05;2.88;;;6.80;99.90;;;;;;4964017;28;20709;-77
2021/12/24 01:01:10;;;;;;;5.30;4.57;;;6.80;99.90;;;;;;4963590;28;20134;-77
2021/12/24 01:03:36;;;;;;;3.35;3.15;;;6.80;99.90;;;;;;4961360;28;20050;-77
2021/12/24 01:06:03;;;;;;;4.75;2.90;;;6.80;99.90;;;;;;4962529;28;20054;-78
2021/12/24 01:08:28;;;;;;;2.85;2.63;;;6.90;99.90;;;;;;4963326;28;20473;-77
2021/12/24 01:10:57;;;;;;;4.63;3.47;;;6.90;99.90;;;;;;4961806;28;20168;-77
2021/12/24 01:13:24;;;;;;;3.22;2.92;;;6.90;99.90;;;;;;4961688;28;20137;-78
2021/12/24 01:15:58;;;;;;;5.97;3.65;;;6.90;99.90;;;;;;4962754;28;20126;-77
2021/12/24 01:18:36;;;;;;;5.85;3.42;;;6.90;99.90;;;;;;4962708;28;20047;-77
2021/12/24 01:26:21;;;;;;;7.47;3.63;;;7.00;99.90;;;;;;4962088;28;20110;-78
2021/12/24 01:40:25;;;;;;;6.05;5.47;;;7.00;99.90;;;;;;4962530;28;20178;-77
2021/12/24 01:42:52;;;;;;;6.45;3.60;;;7.00;99.90;;;;;;4961202;28;20077;-77
2021/12/24 01:45:20;;;;;;;7.90;3.72;;;7.10;99.90;;;;;;4962047;28;20047;-78
2021/12/24 01:47:46;;;;;;;2.85;2.65;;;7.10;99.90;;;;;;4962483;28;20082;-77
2021/12/24 01:50:13;;;;;;;4.78;4.07;;;7.10;99.90;;;;;;4962839;28;20070;-77
2021/12/24 01:52:39;;;;;;;5.18;4.70;;;7.10;99.90;;;;;;4945646;28;20071;-77
2021/12/24 01:55:06;;;;;;;3.65;3.35;;;7.10;99.90;;;;;;4962057;28;20502;-77
2021/12/24 01:57:32;;;;;;;6.97;4.63;;;7.10;99.90;;;;;;4961417;28;20493;-77
2021/12/24 01:59:59;;;;;;;4.45;3.53;;;7.20;99.90;;;;;;4961049;28;20043;-77
2021/12/24 02:02:25;;;;;;;4.40;3.78;;;7.20;99.90;;;;;;4975988;23;20046;-78
2021/12/24 02:04:50;;;;;;;3.22;2.92;;;7.20;99.90;;;;;;4983098;28;20057;-77
2021/12/24 02:07:16;;;;;;;1.75;1.65;;;7.20;99.90;;;;;;4982993;28;20064;-78
2021/12/24 02:09:41;;;;;;;5.55;3.28;;;7.20;99.90;;;;;;4982980;28;20061;-78
2021/12/24 02:12:09;;;;;;;3.30;3.03;;;7.20;99.90;;;;;;4982434;28;20093;-77
2021/12/24 02:14:38;;;;;;;4.20;3.90;;;7.20;99.90;;;;;;4982851;28;20099;-77
2021/12/24 02:30:48;;;;;;;3.03;2.75;;;7.30;99.90;;;;;;5001795;28;20046;-77
2021/12/24 02:33:14;;;;;;;2.63;2.40;;;7.30;99.90;;;;;;4983760;28;20053;-77
2021/12/24 02:35:40;;;;;;;7.18;4.35;;;7.30;99.90;;;;;;4984813;28;20058;-77
2021/12/24 02:38:07;;;;;;;4.93;4.07;;;7.30;99.90;;;;;;4984256;28;20053;-77
2021/12/24 02:40:34;;;;;;;6.43;4.50;;;7.40;99.90;;;;;;4983542;28;20088;-77
2021/12/24 02:43:00;;;;;;;7.30;3.63;;;7.40;99.90;;;;;;5000608;28;20457;-77
2021/12/24 02:45:29;;;;;;;14.38;3.88;;;7.40;99.90;;;;;;5002044;28;20101;-77
2021/12/24 02:56:04;;;;;;;4.45;4.10;;;7.50;99.90;;;;;;4983666;28;20146;-77
2021/12/24 02:58:45;;;;;;;3.78;3.53;;;7.50;99.90;;;;;;4968441;28;20053;-77
2021/12/24 03:01:13;;;;;;;4.75;3.50;;;7.50;99.90;;;;;;5001434;28;20161;-77
2021/12/24 03:03:39;;;;;;;11.98;4.20;;;7.60;99.90;;;;;;5000529;28;20504;-78
2021/12/24 03:06:05;;;;;;;2.00;1.90;;;7.50;99.90;;;;;;4983659;28;20038;-77
2021/12/24 03:08:31;;;;;;;7.03;4.18;;;7.50;99.90;;;;;;5001862;28;20041;-77
2021/12/24 03:10:58;;;;;;;3.50;3.20;;;7.50;99.90;;;;;;5001198;28;20048;-77
2021/12/24 03:13:25;;;;;;;4.53;3.33;;;7.60;99.90;;;;;;5001612;28;20042;-77
2021/12/24 03:15:51;;;;;;;1.98;1.88;;;7.60;99.90;;;;;;5001805;28;20073;-77
2021/12/24 03:18:24;;;;;;;5.75;4.95;;;7.60;99.90;;;;;;4983634;28;20168;-78
2021/12/24 03:20:57;;;;;;;5.97;4.32;;;7.60;99.90;;;;;;4984444;28;20048;-77
2021/12/24 03:23:35;;;;;;;5.78;4.57;;;7.60;99.90;;;;;;4983892;28;20050;-77
2021/12/24 03:26:00;;;;;;;2.30;2.10;;;7.70;99.90;;;;;;5001171;28;20117;-78
2021/12/24 03:28:26;;;;;;;4.45;3.97;;;7.70;99.90;;;;;;5001170;28;20536;-77
2021/12/24 03:30:52;;;;;;;5.18;3.78;;;7.70;99.90;;;;;;4945250;28;20055;-78
2021/12/24 03:33:18;;;;;;;5.38;4.95;;;7.70;99.90;;;;;;4944706;28;20055;-77
2021/12/24 03:35:43;;;;;;;8.57;4.07;;;7.70;99.90;;;;;;4945258;28;20130;-78
2021/12/24 03:38:09;;;;;;;10.80;5.90;;;7.70;99.90;;;;;;4962578;28;20468;-77
2021/12/24 03:40:34;;;;;;;3.13;2.90;;;7.70;99.90;;;;;;4962252;28;20090;-78
2021/12/24 03:43:00;;;;;;;2.65;2.33;;;7.70;99.90;;;;;;4961991;28;20051;-77
2021/12/24 03:45:34;;;;;;;3.45;3.15;;;7.70;99.90;;;;;;4944844;28;20050;-78
2021/12/24 03:48:03;;;;;;;6.28;4.50;;;7.80;99.90;;;;;;4961382;28;20437;-77
2021/12/24 03:50:46;;;;;;;9.30;4.35;;;7.80;99.90;;;;;;4945277;28;20039;-78
2021/12/24 03:55:56;;;;;;;4.95;3.95;;;7.80;99.90;;;;;;4948330;28;20062;-77
2021/12/24 03:58:21;;;;;;;5.50;4.93;;;7.90;99.90;;;;;;4966017;28;20038;-77
2021/12/24 04:00:47;;;;;;;4.50;4.10;;;7.90;99.90;;;;;;4966211;28;20051;-78
2021/12/24 04:03:13;;;;;;;16.75;4.35;;;7.80;99.90;;;;;;4963724;28;20502;-78
2021/12/24 04:05:38;;;;;;;3.38;2.40;;;7.90;99.90;;;;;;4965286;28;20054;-77
2021/12/24 04:08:04;;;;;;;5.30;4.07;;;7.80;99.90;;;;;;4964634;28;20050;-77
2021/12/24 04:10:39;;;;;;;5.25;4.60;;;7.90;99.90;;;;;;4965806;28;20042;-77
2021/12/24 04:13:06;;;;;;;4.70;4.30;;;7.80;99.90;;;;;;4964968;28;20042;-77
2021/12/24 04:15:31;;;;;;;4.22;3.50;;;7.90;99.90;;;;;;4965456;28;20544;-77
2021/12/24 04:17:57;;;;;;;2.45;2.35;;;7.90;99.90;;;;;;4964410;28;20042;-77
2021/12/24 04:25:51;;;;;;;3.75;3.17;;;7.90;99.90;;;;;;4948090;28;20055;-78
2021/12/24 04:28:17;;;;;;;4.88;4.45;;;7.90;99.90;;;;;;4948109;28;20505;-78
2021/12/24 04:30:48;;;;;;;8.93;5.05;;;7.90;99.90;;;;;;5000973;28;20518;-77
2021/12/24 04:33:22;;;;;;;5.45;3.75;;;7.90;99.90;;;;;;5003111;28;20117;-78
2021/12/24 04:36:07;;;;;;;11.13;4.75;;;7.90;99.90;;;;;;4987249;28;20136;-78
2021/12/24 04:38:45;;;;;;;3.25;2.47;;;7.90;99.90;;;;;;5004410;28;20523;-77
2021/12/24 05:03:07;;;;;;;3.25;2.53;;;8.00;99.90;;;;;;5001727;28;20053;-78
2021/12/24 05:05:52;;;;;;;4.07;3.25;;;8.00;99.90;;;;;;5003462;28;20057;-77
2021/12/24 05:08:24;;;;;;;3.45;3.15;;;8.00;99.90;;;;;;4986548;28;20041;-77
2021/12/24 05:10:51;;;;;;;22.08;3.85;;;8.10;99.90;;;;;;5003700;28;20290;-77
2021/12/24 05:13:19;;;;;;;3.88;2.35;;;8.00;99.90;;;;;;5003968;28;20065;-78
2021/12/24 05:15:48;;;;;;;1.88;1.77;;;8.10;99.90;;;;;;4985654;28;20060;-77
2021/12/24 05:18:38;;;;;;;3.80;2.60;;;8.10;99.90;;;;;;4984908;28;20552;-78
2021/12/24 05:23:48;;;;;;;5.93;2.58;;;8.10;99.90;;;;;;4985930;28;20060;-78
2021/12/24 05:26:14;;;;;;;5.18;2.95;;;8.10;99.90;;;;;;4985563;28;20069;-78
2021/12/24 05:28:40;;;;;;;11.48;2.97;;;8.00;99.90;;;;;;5001889;28;20117;-77
2021/12/24 05:31:06;;;;;;;2.95;2.75;;;8.00;99.90;;;;;;4983296;28;20046;-77
2021/12/24 05:33:31;;;;;;;2.58;2.22;;;8.00;99.90;;;;;;4982522;28;20097;-78
2021/12/24 05:35:57;;;;;;;6.32;1.95;;;8.00;99.90;;;;;;4983190;28;20108;-78
2021/12/24 05:38:23;;;;;;;10.52;2.17;;;8.10;99.90;;;;;;4983482;28;20508;-78
2021/12/24 05:40:48;;;;;;;3.25;2.47;;;8.10;99.90;;;;;;4983756;28;20551;-78
2021/12/24 05:43:14;;;;;;;5.97;3.35;;;8.10;99.90;;;;;;4982689;28;20049;-78
2021/12/24 05:45:39;;;;;;;7.50;2.60;;;8.00;99.90;;;;;;4983330;28;20290;-77
2021/12/24 05:48:05;;;;;;;3.33;2.13;;;8.10;99.90;;;;;;4964596;28;20053;-78
2021/12/24 05:50:31;;;;;;;2.70;2.05;;;8.10;99.90;;;;;;4983360;28;20410;-78
2021/12/24 05:52:57;;;;;;;5.05;1.10;;;8.00;99.90;;;;;;4969700;28;20045;-77
2021/12/24 05:55:22;;;;;;;2.05;1.92;;;8.00;99.90;;;;;;4995887;28;20595;-78
2021/12/24 05:57:48;;;;;;;8.75;2.30;;;8.00;99.90;;;;;;4985507;28;20057;-78
2021/12/24 06:00:15;;;;;;;2.35;1.88;;;8.00;99.90;;;;;;5002109;28;20403;-78
2021/12/24 06:02:41;;;;;;;5.13;1.90;;;8.00;99.90;;;;;;5001361;28;20113;-78
2021/12/24 06:05:07;;;;;;;4.25;2.95;;;8.00;99.90;;;;;;5002423;28;20089;-78
2021/12/24 06:07:32;;;;;;;2.58;2.38;;;8.00;99.90;;;;;;5002452;28;20033;-78
2021/12/24 06:09:58;;;;;;;2.28;1.73;;;8.00;99.90;;;;;;4984643;28;20045;-78
2021/12/24 06:12:23;;;;;;;2.20;2.05;;;8.00;99.90;;;;;;4984610;28;20048;-78
2021/12/24 06:14:53;;;;;;;5.40;1.70;;;8.00;99.90;;;;;;5002735;28;20030;-78
2021/12/24 06:17:22;;;;;;;1.52;1.30;;;8.00;99.90;;;;;;4984586;28;20049;-78
2021/12/24 06:19:48;;;;;;;1.67;1.58;;;8.00;99.90;;;;;;5002673;28;20195;-77
2021/12/24 06:22:13;;;;;;;2.05;1.92;;;8.00;99.90;;;;;;4984673;28;20049;-78
2021/12/24 06:24:39;;;;;;;4.00;1.83;;;8.00;99.90;;;;;;5002275;28;20046;-78
2021/12/24 06:27:05;;;;;;;8.80;2.78;;;8.00;99.90;;;;;;4984625;28;20558;-77
2021/12/24 06:29:31;;;;;;;3.13;2.05;;;8.00;99.90;;;;;;4993740;28;20121;-78
2021/12/24 06:31:57;;;;;;;2.38;2.20;;;7.90;99.90;;;;;;4963911;28;20050;-77
2021/12/24 06:34:22;;;;;;;2.42;1.98;;;7.90;99.90;;;;;;4982738;28;20382;-75
2021/12/24 06:36:51;;;;;;;5.10;2.13;;;8.00;99.90;;;;;;4964946;28;20441;-77
2021/12/24 06:39:16;;;;;;;1.20;1.10;;;7.90;99.90;;;;;;4964982;28;20409;-78
2021/12/24 06:41:43;;;;;;;10.90;2.33;;;7.90;99.90;;;;;;4979470;28;20042;-77
2021/12/24 06:44:11;;;;;;;5.20;1.55;;;7.90;99.90;;;;;;4980839;28;20046;-78
2021/12/24 06:46:41;;;;;;;1.77;1.67;;;7.90;99.90;;;;;;4980725;28;20093;-78
2021/12/24 06:49:07;;;;;;;1.85;1.00;;;7.90;99.90;;;;;;4980884;28;20085;-78
2021/12/24 06:51:33;;;;;;;1.45;1.33;;;7.90;99.90;;;;;;4963886;28;20137;-77
2021/12/24 06:53:58;;;;;;;3.47;1.63;;;7.90;99.90;;;;;;4980902;28;20499;-78
2021/12/24 06:56:24;;;;;;;4.15;2.13;;;7.90;99.90;;;;;;4981288;28;20046;-78
2021/12/24 06:58:50;;;;;;;1.60;1.50;;;8.00;99.90;;;;;;4981717;28;20054;-78
2021/12/24 07:01:16;;;;;;;0.70;0.70;;;7.90;99.90;;;;;;4964003;28;20121;-77
2021/12/24 07:03:42;;;;;;;2.75;1.90;;;8.00;99.90;;;;;;4980404;28;20058;-78
2021/12/24 07:06:08;;;;;;;7.03;1.17;;;8.00;99.90;;;;;;4963787;28;20538;-78
2021/12/24 07:08:34;;;;;;;1.35;1.25;;;8.00;99.90;;;;;;4963776;28;20125;-78
2021/12/24 07:11:00;;;;;;;2.42;1.70;;;8.00;99.90;;;;;;4980938;28;20074;-78
2021/12/24 07:13:26;;;;;;;2.47;1.98;;;8.00;99.90;;;;;;4980661;28;20081;-77
2021/12/24 07:15:51;;;;;;;3.13;0.90;;;8.00;99.90;;;;;;4980854;28;20035;-78
2021/12/24 07:18:17;;;;;;;1.42;1.20;;;8.00;99.90;;;;;;4963142;28;20409;-78
2021/12/24 07:20:42;;;;;;;1.00;1.00;;;8.00;99.90;;;;;;4963844;28;20125;-78
2021/12/24 07:23:08;;;;;;;2.97;2.13;;;8.00;99.90;;;;;;4980629;28;20038;-78
2021/12/24 07:25:34;;;;;;;2.08;1.63;;;8.00;99.90;;;;;;4981425;28;20080;-78
2021/12/24 07:28:01;;;;;;;1.42;1.35;;;8.00;99.90;;;;;;4967293;28;20116;-78
2021/12/24 07:30:27;;;;;;;2.42;1.60;;;8.00;99.90;;;;;;4982349;28;20081;-78
2021/12/24 07:32:53;;;;;;;1.45;1.27;;;8.00;99.90;;;;;;5002845;28;20493;-78
2021/12/24 07:35:19;;;;;;;1.02;0.93;;;8.00;99.90;;;;;;5004532;28;20049;-78
2021/12/24 07:37:45;;;;;;;2.03;1.23;;;8.00;99.90;;;;;;5003871;28;20492;-78
2021/12/24 07:40:16;;;;;;;3.05;1.95;;;8.00;99.90;;;;;;5004072;28;20423;-78
2021/12/24 07:42:42;;;;;;;4.60;2.08;;;8.00;99.90;;;;;;4986318;28;20064;-78
2021/12/24 07:45:10;;;;;;;10.65;2.35;;;8.00;99.90;;;;;;5003894;28;20085;-78
2021/12/24 07:47:40;;;;;;;1.70;1.55;;;8.00;99.90;;;;;;5003301;28;20084;-78
2021/12/24 07:52:52;;;;;;;5.35;2.00;;;8.00;99.90;;;;;;4965368;28;20046;-78
2021/12/24 07:55:17;;;;;;;1.80;1.65;;;8.00;99.90;;;;;;4985221;28;20044;-78
2021/12/24 07:57:45;;;;;;;1.80;1.70;;;8.00;99.90;;;;;;4984869;28;20120;-78
2021/12/24 08:00:11;;;;;;;1.50;1.40;;;8.00;99.90;;;;;;4967634;28;20046;-78
2021/12/24 08:02:37;;;;;;;0.85;0.85;;;8.00;99.90;;;;;;4966773;28;20448;-78
2021/12/24 08:05:03;;;;;;;2.05;1.45;;;8.00;99.90;;;;;;4967567;28;20061;-78
2021/12/24 08:07:28;;;;;;;2.80;1.92;;;8.00;99.90;;;;;;4977123;28;20039;-78
2021/12/24 08:09:54;;;;;;;2.90;1.85;;;7.90;99.90;;;;;;4966001;28;20126;-78
2021/12/24 08:12:20;;;;;;;1.85;1.30;;;7.90;99.90;;;;;;4954539;28;20035;-78
2021/12/24 08:14:46;;;;;;;2.83;1.85;;;7.90;99.90;;;;;;4967327;28;20568;-79
2021/12/24 08:17:12;;;;;;;1.73;0.93;;;8.00;99.90;;;;;;4983685;28;20049;-79
2021/12/24 08:19:38;;;;;;;0.73;0.73;;;8.00;99.90;;;;;;4967288;28;20716;-79
2021/12/24 08:22:05;;;;;;;1.75;1.65;;;8.00;99.90;;;;;;4984747;28;20556;-78
2021/12/24 08:24:30;;;;;;;3.38;1.85;;;7.90;99.90;;;;;;4964286;28;20049;-79
2021/12/24 08:26:56;;;;;;;2.47;1.23;;;8.00;99.90;;;;;;4990186;28;20489;-79
2021/12/24 08:29:22;;;;;;;1.73;1.52;;;8.00;99.90;;;;;;4983649;28;20513;-79
2021/12/24 08:31:50;;;;;;;4.13;1.60;;;8.00;99.90;;;;;;4984573;28;20165;-79
2021/12/24 08:34:18;;;;;;;2.65;1.75;;;8.00;99.90;;;;;;4965336;28;20127;-79
2021/12/24 08:36:44;;;;;;;4.35;2.33;;;8.00;99.90;;;;;;4965629;28;20046;-79
2021/12/24 08:39:09;;;;;;;1.08;1.08;;;8.00;99.90;;;;;;4964297;28;20490;-79
2021/12/24 08:41:35;;;;;;;2.92;1.83;;;8.00;99.90;;;;;;4993716;28;20050;-78
2021/12/24 08:44:01;;;;;;;1.92;1.83;;;7.90;99.90;;;;;;4993593;28;20041;-78
2021/12/24 08:46:27;;;;;;;0.45;0.40;;;8.00;99.90;;;;;;4991014;28;20378;-80
2021/12/24 08:48:53;;;;;;;1.70;1.60;;;7.90;99.90;;;;;;4991706;28;20048;-79
2021/12/24 08:51:19;;;;;;;1.25;1.15;;;7.90;99.90;;;;;;4975488;28;20046;-80
2021/12/24 08:53:48;;;;;;;2.17;1.98;;;7.90;99.90;;;;;;4974063;28;20111;-80
2021/12/24 08:56:13;;;;;;;2.10;1.85;;;7.90;99.90;;;;;;4995067;28;20113;-79
2021/12/24 08:58:39;;;;;;;2.60;2.10;;;7.90;99.90;;;;;;4968655;28;20070;-80
2021/12/24 09:01:06;;;;;;;4.13;1.33;;;7.90;99.90;;;;;;4966596;28;20387;-79
2021/12/24 09:03:31;;;;;;;1.20;1.10;;;7.90;99.90;;;;;;4972806;28;20070;-80
2021/12/24 09:05:57;;;;;;;2.15;1.88;;;7.90;99.90;;;;;;4991481;28;20512;-79
2021/12/24 09:08:23;;;;;;;0.60;0.60;;;7.90;99.90;;;;;;4992210;28;20476;-80
2021/12/24 09:10:48;;;;;;;5.78;1.98;;;7.80;99.90;;;;;;4985833;28;20493;-80
2021/12/24 09:13:14;;;;;;;2.40;1.65;;;7.90;99.90;;;;;;4968782;28;20045;-79
2021/12/24 09:15:40;;;;;;;1.38;1.38;;;7.80;99.90;;;;;;4992999;28;20440;-79
2021/12/24 09:18:06;;;;;;;0.55;0.55;;;7.80;99.90;;;;;;4990523;28;20690;-79
2021/12/24 09:20:41;;;;;;;0.57;0.57;;;7.80;99.90;;;;;;4990447;28;20044;-80
2021/12/24 09:23:09;;;;;;;0.17;0.17;;;7.80;99.90;;;;;;4987360;28;20046;-79
2021/12/24 09:25:35;;;;;;;0.93;0.93;;;7.80;99.90;;;;;;4989884;28;20113;-79
2021/12/24 09:28:00;;;;;;;2.63;0.80;;;7.90;99.90;;;;;;4956442;28;20053;-79
2021/12/24 09:30:27;;;;;;;2.38;1.10;;;7.80;99.90;;;;;;4989295;28;20034;-80
2021/12/24 09:32:53;;;;;;;0.38;0.35;;;7.90;99.90;;;;;;4990105;28;20046;-80
2021/12/24 09:35:19;;;;;;;0.98;0.50;;;7.80;99.90;;;;;;4989211;28;20042;-79
2021/12/24 09:37:45;;;;;;;0.30;0.30;;;7.80;99.90;;;;;;4992407;28;20042;-79
2021/12/24 09:40:13;;;;;;;0.50;0.50;;;7.80;99.90;;;;;;4991774;28;20551;-82
2021/12/24 09:42:39;;;;;;;0.30;0.30;;;7.80;99.90;;;;;;4984331;28;20038;-79
2021/12/24 09:45:06;;;;;;;0.63;0.63;;;7.80;99.90;;;;;;4976896;28;20385;-79
2021/12/24 09:47:33;;;;;;;0.30;0.30;;;7.80;99.90;;;;;;4968700;28;20500;-79
2021/12/24 09:49:59;;;;;;;0.30;0.30;;;7.80;99.90;;;;;;4990391;28;20100;-81
2021/12/24 09:52:26;;;;;;;0.10;0.10;;;7.80;99.90;;;;;;4992563;28;20041;-79
2021/12/24 09:54:52;;;;;;;0.63;0.63;;;7.70;99.90;;;;;;4989174;28;20085;-80
2021/12/24 09:57:19;;;;;;;0.10;0.10;;;7.60;99.90;;;;;;4990431;28;20572;-80
2021/12/24 09:59:45;;;;;;;0.40;0.40;;;7.50;99.90;;;;;;4967072;28;20133;-80
2021/12/24 10:02:19;;;;;;;0.30;0.30;;;7.40;99.90;;;;;;4981654;28;20121;-80
2021/12/24 10:04:46;;;;;;;0.30;0.30;;;7.30;99.90;;;;;;4964984;28;20137;-80
2021/12/24 10:07:16;;;;;;;0.52;0.52;;;7.20;99.90;;;;;;4963468;28;20298;-80
2021/12/24 10:09:49;;;;;;;0.90;0.88;;;7.20;99.90;;;;;;4963858;28;20043;-79
2021/12/24 10:12:23;;;;;;;0.35;0.35;;;7.10;99.90;;;;;;4974683;28;20556;-79
2021/12/24 10:14:57;;;;;;;0.47;0.47;;;7.10;99.90;;;;;;4990752;28;20096;-80
2021/12/24 10:17:34;;;;;;;0.32;0.32;;;7.10;99.90;;;;;;5001768;28;20419;-80
2021/12/24 10:20:08;;;;;;;0.10;0.10;;;7.10;99.90;;;;;;5001498;28;20042;-78
2021/12/24 10:22:50;;;;;;;1.35;0.47;;;7.10;99.90;;;;;;4973593;28;20053;-79
2021/12/24 10:25:16;;;;;;;0.20;0.20;;;7.10;99.90;;;;;;4973570;28;20088;-78
2021/12/24 10:27:43;;;;;;;0.13;0.13;;;7.00;99.90;;;;;;4972615;28;20449;-78
2021/12/24 10:30:29;;;;;;;0.30;0.30;;;7.00;99.90;;;;;;4991293;28;20038;-78
2021/12/24 10:32:57;;;;;;;0.93;0.93;;;7.00;99.90;;;;;;4985575;28;20117;-78
2021/12/24 10:35:31;;;;;;;0.85;0.85;;;6.90;99.90;;;;;;4990001;28;20045;-79
2021/12/24 10:38:11;;;;;;;0.38;0.38;;;6.90;99.90;;;;;;4967849;28;20034;-79
2021/12/24 10:40:48;;;;;;;0.90;0.90;;;6.90;99.90;;;;;;4974618;28;20540;-79
2021/12/24 10:43:24;;;;;;;9.15;0.73;;;6.90;99.90;;;;;;4971949;28;20121;-79
2021/12/24 10:46:10;;;;;;;3.20;1.27;;;6.80;99.90;;;;;;4973030;28;20056;-80
2021/12/24 10:48:37;;;;;;;0.73;0.73;;;6.80;99.90;;;;;;4962602;28;20084;-79
2021/12/24 10:51:18;;;;;;;1.73;1.10;;;6.80;99.90;;;;;;4989021;28;20100;-78
2021/12/24 10:54:04;;;;;;;0.75;0.75;;;6.80;99.90;;;;;;4985147;28;20097;-84
2021/12/24 10:56:30;;;;;;;1.30;1.25;;;6.80;99.90;;;;;;4987122;28;20054;-85
2021/12/24 10:58:56;;;;;;;0.82;0.82;;;6.80;99.90;;;;;;4970462;28;20448;-84
2021/12/24 11:01:24;;;;;;;1.17;1.13;;;6.80;99.90;;;;;;4981185;28;20042;-83
2021/12/24 11:03:51;;;;;;;0.98;0.98;;;6.80;99.90;;;;;;4960644;28;20692;-81
2021/12/24 11:06:16;;;;;;;0.60;0.60;;;6.70;99.90;;;;;;4978162;28;20050;-80
2021/12/24 11:08:43;;;;;;;1.23;1.23;;;6.70;99.90;;;;;;4980687;28;20061;-80
2021/12/24 11:11:15;;;;;;;0.93;0.93;;;6.70;99.90;;;;;;4980819;28;20048;-80
2021/12/24 11:13:42;;;;;;;;;;;6.80;99.90;;;;;;4981330;28;20411;-80
2021/12/24 11:16:17;;;;;;;8.75;1.65;;;6.80;99.90;;;;;;4963238;28;20376;-80
2021/12/24 11:18:46;;;;;;;0.95;0.95;;;6.80;99.90;;;;;;4980953;28;20031;-80
2021/12/24 11:21:18;;;;;;;0.82;0.82;;;6.80;99.90;;;;;;4963640;28;20535;-80
2021/12/24 11:23:44;;;;;;;1.55;0.75;;;6.80;99.90;;;;;;4961030;28;20046;-79
2021/12/24 11:26:15;;;;;;;0.75;0.75;;;6.80;99.90;;;;;;4981489;28;20038;-79
2021/12/24 11:28:41;;;;;;;0.93;0.93;;;6.80;99.90;;;;;;4958192;28;20046;-79
2021/12/24 11:31:10;;;;;;;0.60;0.60;;;6.80;99.90;;;;;;4980578;28;20046;-78
2021/12/24 11:33:38;;;;;;;0.65;0.65;;;6.80;99.90;;;;;;4978566;28;20030;-78
2021/12/24 11:36:07;;;;;;;0.60;0.60;;;6.70;99.90;;;;;;4971271;28;20412;-78
2021/12/24 11:38:38;;;;;;;11.70;0.90;;;6.70;99.90;;;;;;4975585;28;20053;-79
2021/12/24 11:41:06;;;;;;;0.43;0.43;;;6.70;99.90;;;;;;4979381;28;20066;-79
2021/12/24 11:43:35;;;;;;;4.00;1.67;;;6.70;99.90;;;;;;4968146;28;20050;-79
2021/12/24 11:46:03;;;;;;;1.15;1.15;;;6.70;99.90;;;;;;4961263;28;20590;-79
2021/12/24 11:48:32;;;;;;;0.63;0.63;;;6.70;99.90;;;;;;4963304;28;20098;-79
2021/12/24 11:51:04;;;;;;;0.45;0.40;;;6.70;99.90;;;;;;4945344;28;20069;-79
2021/12/24 11:53:33;;;;;;;0.75;0.75;;;6.70;99.90;;;;;;4977843;28;20387;-78
2021/12/24 11:56:07;;;;;;;1.92;1.80;;;6.70;99.90;;;;;;4958731;28;20038;-79
2021/12/24 11:58:43;;;;;;;1.85;1.13;;;6.70;99.90;;;;;;4974076;28;20051;-79
2021/12/24 12:01:08;;;;;;;1.23;0.75;;;6.70;99.90;;;;;;4948102;28;20101;-79
2021/12/24 12:03:41;;;;;;;5.10;1.15;;;6.60;99.90;;;;;;4963708;28;20058;-79
2021/12/24 12:06:29;;;;;;;1.48;1.30;;;6.70;99.90;;;;;;4981798;28;20046;-79
2021/12/24 12:08:57;;;;;;;0.95;0.93;;;6.70;99.90;;;;;;4952587;28;20053;-79
2021/12/24 12:11:24;;;;;;;0.82;0.82;;;6.70;99.90;;;;;;4973567;28;20068;-79
2021/12/24 12:14:03;;;;;;;0.32;0.32;;;6.70;99.90;;;;;;4974280;28;20145;-79
2021/12/24 12:16:54;;;;;;;0.73;0.73;;;6.70;99.90;;;;;;4972958;28;20039;-79
2021/12/24 12:19:39;;;;;;;1.00;1.00;;;6.70;99.90;;;;;;4977846;28;20480;-79
2021/12/24 12:25:10;;;;;;;0.85;0.85;;;6.70;99.90;;;;;;4949667;28;20042;-79
2021/12/24 12:27:51;;;;;;;0.40;0.40;;;6.70;99.90;;;;;;4971383;28;20038;-79
2021/12/24 12:30:24;;;;;;;1.90;1.55;;;6.70;99.90;;;;;;4963071;28;20054;-79
2021/12/24 12:32:52;;;;;;;0.82;0.82;;;6.80;99.90;;;;;;4982963;28;20151;-79
2021/12/24 12:35:18;;;;;;;0.20;0.20;;;6.80;99.90;;;;;;4965912;28;20047;-79
2021/12/24 12:37:50;;;;;;;0.32;0.32;;;6.80;99.90;;;;;;4949025;28;20050;-79
2021/12/24 12:40:15;;;;;;;0.20;0.20;;;6.80;99.90;;;;;;4980304;28;20039;-79
2021/12/24 12:42:56;;;;;;;0.25;0.25;;;6.80;99.90;;;;;;4965570;28;20054;-79
2021/12/24 12:45:42;;;;;;;0.80;0.60;;;6.80;99.90;;;;;;4967293;28;20065;-79
2021/12/24 12:48:11;;;;;;;1.38;1.27;;;6.80;99.90;;;;;;4947432;28;20142;-79
2021/12/24 12:50:40;;;;;;;0.80;0.80;;;6.80;99.90;;;;;;4963504;28;20095;-79
2021/12/24 12:53:27;;;;;;;0.65;0.65;;;6.80;99.90;;;;;;4964882;28;20095;-80
2021/12/24 12:56:13;;;;;;;0.52;0.52;;;6.80;99.90;;;;;;4956429;28;20406;-81
2021/12/24 12:58:41;;;;;;;0.47;0.47;;;6.90;99.90;;;;;;4964090;28;20050;-82
2021/12/24 13:01:16;;;;;;;1.70;1.13;;;6.90;99.90;;;;;;4962505;28;20104;-82
2021/12/24 13:04:09;;;;;;;0.38;0.38;;;6.90;99.90;;;;;;4946164;28;20066;-82
2021/12/24 13:06:34;;;;;;;0.38;0.38;;;6.90;99.90;;;;;;4927295;28;20061;-84
2021/12/24 13:09:03;;;;;;;0.35;0.28;;;6.90;99.90;;;;;;4964792;28;20054;-84
2021/12/24 13:11:34;;;;;;;0.10;0.10;;;6.90;99.90;;;;;;4964097;28;20073;-82
2021/12/24 13:14:01;;;;;;;1.17;0.47;;;6.90;99.90;;;;;;4946857;28;20047;-82
2021/12/24 13:16:35;;;;;;;0.30;0.30;;;6.90;99.90;;;;;;4963729;28;20079;-82
2021/12/24 13:25:05;;;;;;;0.15;0.15;;;7.00;99.90;;;;;;4948145;28;20615;-82
2021/12/24 13:27:37;;;;;;;0.57;0.57;;;6.90;99.90;;;;;;4947091;28;20046;-82
2021/12/24 13:30:23;;;;;;;0.68;0.60;;;7.00;99.90;;;;;;4988937;28;20054;-82
2021/12/24 13:32:53;;;;;;;0.10;0.10;;;6.90;99.90;;;;;;4964112;28;20130;-83
2021/12/24 13:35:22;;;;;;;0.17;0.17;;;6.90;99.90;;;;;;4947340;28;20101;-83
2021/12/24 13:37:48;;;;;;;0.20;0.20;;;6.90;99.90;;;;;;4946770;28;20070;-82
2021/12/24 13:40:17;;;;;;;0.30;0.30;;;6.90;99.90;;;;;;4964244;28;20047;-82
2021/12/24 13:42:47;;;;;;;0.43;0.43;;;6.90;99.90;;;;;;4965802;28;20065;-82
2021/12/24 13:45:14;;;;;;;0.52;0.52;;;6.90;99.90;;;;;;4965401;28;20058;-82
2021/12/24 13:55:53;;;;;;;1.65;0.52;;;7.00;99.90;;;;;;4953569;28;20055;-81
2021/12/24 13:58:21;;;;;;;3.15;0.65;;;7.00;99.90;;;;;;4959159;28;20042;-84
2021/12/24 14:00:50;;;;;;;0.65;0.65;;;7.00;99.90;;;;;;4960129;28;20050;-82
2021/12/24 14:03:17;;;;;;;0.20;0.20;;;7.00;99.90;;;;;;4981832;28;20528;-83
2021/12/24 14:05:48;;;;;;;0.65;0.65;;;7.00;99.90;;;;;;4964158;28;20069;-83
2021/12/24 14:08:20;;;;;;;0.50;0.47;;;7.00;99.90;;;;;;4961085;28;20124;-81
2021/12/24 14:10:48;;;;;;;5.20;0.95;;;7.00;99.90;;;;;;4946451;28;20051;-81
2021/12/24 14:13:25;;;;;;;1.00;0.93;;;7.00;99.90;;;;;;4955084;28;20049;-81
2021/12/24 14:16:07;;;;;;;0.30;0.30;;;6.90;99.90;;;;;;4949277;28;20047;-82
2021/12/24 14:24:11;;;;;;;0.17;0.17;;;6.90;99.90;;;;;;4946355;28;20428;-87
2021/12/24 14:26:42;;;;;;;0.57;0.57;;;6.80;99.90;;;;;;4948834;28;20126;-87
2021/12/24 14:29:37;;;;;;;0.10;0.10;;;6.70;99.90;;;;;;4954872;28;20551;-90
2021/12/24 14:32:12;;;;;;;2.58;0.73;;;6.70;99.90;;;;;;4963717;28;20081;-90
2021/12/24 14:34:41;;;;;;;0.52;0.45;;;6.70;99.90;;;;;;4948958;28;20055;-84
2021/12/24 14:37:09;;;;;;;0.30;0.30;;;6.70;99.90;;;;;;4944759;28;20573;-85
2021/12/24 14:40:01;;;;;;;0.15;0.15;;;6.70;99.90;;;;;;4949977;28;20236;-96
2021/12/24 14:42:36;;;;;;;0.75;0.70;;;6.70;99.90;;;;;;4949120;28;20043;-85
2021/12/24 14:45:24;;;;;;;0.30;0.30;;;6.70;99.90;;;;;;4969490;28;20046;-81
2021/12/24 14:47:59;;;;;;;0.20;0.20;;;6.70;99.90;;;;;;4962354;28;20054;-87
2021/12/24 14:50:25;;;;;;;0.40;0.40;;;6.60;99.90;;;;;;4947201;28;20049;-85
2021/12/24 14:53:22;;;;;;;0.50;0.50;;;6.60;99.90;;;;;;4969062;28;20035;-84
2021/12/24 14:56:00;;;;;;;0.30;0.30;;;6.60;99.90;;;;;;4978812;28;20045;-84
2021/12/24 14:58:29;;;;;;;1.35;0.38;;;6.50;99.90;;;;;;4959725;28;20145;-83